createdAt,value
2022-08-02T00:00:56.055Z,76.47
2022-08-02T00:06:17.798Z,76.36
2022-08-02T00:11:38.614Z,77.08
2022-08-02T00:16:53.690Z,77.09
2022-08-02T00:22:00.885Z,77.61
2022-08-02T00:27:15.933Z,78.08
2022-08-02T00:32:23.603Z,78.14
2022-08-02T00:37:31.051Z,77.91
2022-08-02T00:42:43.184Z,77.75
2022-08-02T00:48:24.316Z,77.22
2022-08-02T00:53:56.559Z,76.58
2022-08-02T00:59:26.283Z,76.65
2022-08-02T01:04:42.896Z,76.00
2022-08-02T01:09:49.931Z,75.48
2022-08-02T01:15:02.020Z,76.28
2022-08-02T01:20:17.912Z,76.04
2022-08-02T01:25:52.840Z,76.05
2022-08-02T01:31:19.944Z,75.92
2022-08-02T01:36:31.991Z,75.84
2022-08-02T01:41:51.317Z,76.45
2022-08-02T01:47:13.998Z,75.97
2022-08-02T01:52:29.455Z,75.97
2022-08-02T01:57:56.873Z,76.06
2022-08-02T02:03:12.989Z,76.00
2022-08-02T02:08:27.376Z,76.55
2022-08-02T02:13:35.180Z,76.55
2022-08-02T02:18:43.921Z,76.30
2022-08-02T02:23:50.712Z,75.96
2022-08-02T02:28:59.693Z,76.17
2022-08-02T02:34:11.265Z,75.77
2022-08-02T02:39:20.920Z,75.62
2022-08-02T02:44:33.521Z,75.43
2022-08-02T02:49:42.979Z,75.48
2022-08-02T02:54:53.398Z,75.85
2022-08-02T02:59:57.638Z,75.01
2022-08-02T03:05:18.596Z,74.06
2022-08-02T03:10:28.009Z,75.08
2022-08-02T03:15:38.232Z,74.50
2022-08-02T03:20:47.174Z,74.29
2022-08-02T03:25:53.943Z,74.47
2022-08-02T03:31:03.120Z,74.00
2022-08-02T03:36:14.353Z,75.55
2022-08-02T03:41:29.502Z,76.20
2022-08-02T03:46:48.420Z,76.54
2022-08-02T03:52:00.422Z,77.54
2022-08-02T03:57:11.930Z,77.31
2022-08-02T04:02:20.777Z,77.25
2022-08-02T04:08:32.729Z,76.56
2022-08-02T04:12:55.718Z,76.36
2022-08-02T04:18:07.337Z,77.14
2022-08-02T04:23:17.501Z,77.22
2022-08-02T04:28:29.193Z,76.77
2022-08-02T04:33:33.701Z,76.89
2022-08-02T04:38:49.915Z,76.68
2022-08-02T04:44:00.229Z,77.23
2022-08-02T04:49:08.645Z,76.76
2022-08-02T04:54:19.082Z,76.33
2022-08-02T04:59:28.451Z,76.02
2022-08-02T05:04:34.470Z,75.65
2022-08-02T05:09:41.674Z,75.72
2022-08-02T05:14:52.776Z,74.38
2022-08-02T05:20:03.014Z,73.71
2022-08-02T05:25:15.224Z,72.60
2022-08-02T05:30:24.588Z,72.93
2022-08-02T05:35:45.502Z,71.35
2022-08-02T05:40:55.005Z,72.32
2022-08-02T05:46:06.175Z,70.13
2022-08-02T05:51:14.456Z,64.27
2022-08-02T05:56:27.118Z,63.90
2022-08-02T06:01:37.729Z,63.34
2022-08-02T06:06:52.342Z,59.19
2022-08-02T06:12:13.607Z,54.51
2022-08-02T06:17:28.111Z,51.39
2022-08-02T06:22:39.352Z,48.17
2022-08-02T06:28:11.447Z,44.92
2022-08-02T06:33:33.494Z,41.36
2022-08-02T06:38:56.921Z,39.47
2022-08-02T06:44:45.898Z,36.52
2022-08-02T06:49:51.652Z,36.90
2022-08-02T06:55:05.345Z,36.44
2022-08-02T07:00:33.148Z,36.70
2022-08-02T07:06:03.409Z,37.84
2022-08-02T07:11:14.701Z,35.88
2022-08-02T07:17:01.508Z,35.83
2022-08-02T07:22:16.861Z,38.60
2022-08-02T07:27:31.649Z,38.79
2022-08-02T07:32:54.122Z,38.47
2022-08-02T07:38:14.187Z,39.96
2022-08-02T07:43:26.485Z,40.68
2022-08-02T07:48:37.748Z,40.86
2022-08-02T07:54:08.928Z,41.03
2022-08-02T07:59:20.328Z,40.86
2022-08-02T08:04:44.569Z,40.72
2022-08-02T08:09:56.364Z,43.36
2022-08-02T08:15:28.649Z,43.65
2022-08-02T08:21:04.765Z,42.83
2022-08-02T08:26:15.833Z,42.42
2022-08-02T08:31:40.104Z,41.99
2022-08-02T08:37:28.691Z,43.14
2022-08-02T08:42:53.382Z,43.38
2022-08-02T08:48:08.886Z,43.43
2022-08-02T08:53:36.332Z,44.18
2022-08-02T08:58:51.837Z,43.42
2022-08-02T09:03:59.297Z,44.21
2022-08-02T09:09:13.727Z,44.96
2022-08-02T09:14:36.392Z,44.39
2022-08-02T09:19:53.532Z,44.17
2022-08-02T09:25:05.438Z,45.00
2022-08-02T09:30:45.011Z,44.74
2022-08-02T09:36:27.349Z,45.96
2022-08-02T09:41:58.893Z,47.01
2022-08-02T09:47:17.075Z,46.58
2022-08-02T09:52:55.204Z,46.96
2022-08-02T10:04:24.625Z,48.15
2022-08-02T10:09:30.758Z,47.43
2022-08-02T10:14:54.106Z,47.34
2022-08-02T10:20:04.774Z,48.52
2022-08-02T10:25:12.102Z,49.32
2022-08-02T10:30:21.350Z,47.07
2022-08-02T10:35:31.626Z,48.49
2022-08-02T10:40:57.296Z,48.65
2022-08-02T10:46:46.968Z,47.76
2022-08-02T10:52:14.220Z,48.20
2022-08-02T10:57:22.930Z,48.41
2022-08-02T11:02:53.567Z,46.28
2022-08-02T11:08:27.997Z,45.33
2022-08-02T11:13:33.831Z,46.60
2022-08-02T11:19:19.856Z,46.19
2022-08-02T11:24:41.594Z,44.18
2022-08-02T11:29:56.058Z,45.05
2022-08-02T11:35:17.012Z,46.55
2022-08-02T11:40:50.335Z,45.08
2022-08-02T11:46:06.725Z,45.18
2022-08-02T11:51:20.763Z,44.17
2022-08-02T11:56:48.520Z,42.34
2022-08-02T12:02:01.827Z,42.60
2022-08-02T12:07:07.923Z,43.02
2022-08-02T12:12:16.547Z,43.06
2022-08-02T12:17:47.560Z,43.19
2022-08-02T12:23:05.466Z,42.87
2022-08-02T12:28:27.603Z,42.39
2022-08-02T12:33:49.663Z,42.07
2022-08-02T12:39:03.424Z,42.20
2022-08-02T12:44:48.032Z,42.09
2022-08-02T12:50:24.702Z,41.64
2022-08-02T12:56:01.129Z,41.53
2022-08-02T13:01:01.442Z,41.11
2022-08-02T13:06:41.951Z,40.18
2022-08-02T13:11:43.043Z,40.55
2022-08-02T13:16:51.895Z,40.92
2022-08-02T13:22:04.881Z,39.59
2022-08-02T13:27:18.201Z,39.95
2022-08-02T13:32:46.969Z,40.28
2022-08-02T13:37:58.823Z,40.61
2022-08-02T13:43:09.917Z,40.64
2022-08-02T13:48:36.378Z,40.11
2022-08-02T13:53:45.762Z,40.10
2022-08-02T13:59:54.028Z,40.61
2022-08-02T14:04:32.176Z,38.56
2022-08-02T14:09:40.517Z,39.89
2022-08-02T14:14:57.011Z,39.40
2022-08-02T14:20:22.742Z,39.32
2022-08-02T14:25:35.960Z,40.48
2022-08-02T14:30:49.762Z,39.51
2022-08-02T14:36:04.660Z,40.10
2022-08-02T14:41:17.708Z,39.86
2022-08-02T14:46:23.967Z,39.35
2022-08-02T14:51:40.361Z,39.01
2022-08-02T14:57:09.418Z,40.07
2022-08-02T15:02:23.072Z,39.77
2022-08-02T15:07:30.375Z,39.66
2022-08-02T15:12:35.411Z,39.07
2022-08-02T15:17:52.880Z,40.60
2022-08-02T15:23:09.557Z,40.11
2022-08-02T15:28:23.482Z,39.76
2022-08-02T15:33:47.887Z,40.58
2022-08-02T15:39:09.681Z,39.30
2022-08-02T15:49:52.687Z,39.92
2022-08-02T15:55:07.094Z,39.89
2022-08-02T16:00:15.719Z,39.46
2022-08-02T16:05:34.393Z,40.55
2022-08-02T16:11:07.363Z,39.80
2022-08-02T16:16:19.203Z,40.63
2022-08-02T16:21:28.813Z,40.69
2022-08-02T16:26:48.190Z,40.08
2022-08-02T16:31:56.248Z,40.18
2022-08-02T16:37:16.297Z,40.72
2022-08-02T16:42:50.233Z,40.74
2022-08-02T16:48:00.462Z,41.20
2022-08-02T16:53:36.682Z,41.05
2022-08-02T16:59:00.285Z,41.63
2022-08-02T17:04:11.554Z,42.01
2022-08-02T17:10:04.372Z,41.68
2022-08-02T17:14:55.279Z,42.24
2022-08-02T17:20:03.346Z,43.08
2022-08-02T17:25:41.925Z,44.03
2022-08-02T17:30:52.321Z,40.86
2022-08-02T17:35:58.571Z,41.68
2022-08-02T17:41:05.032Z,43.14
2022-08-02T17:46:21.683Z,41.26
2022-08-02T17:52:49.314Z,44.14
2022-08-02T17:57:04.360Z,41.82
2022-08-02T18:02:11.409Z,40.37
2022-08-02T18:07:25.630Z,41.53
2022-08-02T18:12:56.380Z,41.73
2022-08-02T18:18:15.614Z,41.04
2022-08-02T18:23:24.419Z,40.17
2022-08-02T18:28:30.066Z,41.05
2022-08-02T18:33:59.369Z,40.58
2022-08-02T18:39:08.231Z,40.93
2022-08-02T18:44:16.435Z,41.48
2022-08-02T18:49:23.127Z,42.40
2022-08-02T18:54:34.265Z,41.95
2022-08-02T18:59:43.021Z,42.33
2022-08-02T19:04:59.947Z,42.54
2022-08-02T19:10:06.712Z,42.99
2022-08-02T19:15:17.647Z,43.55
2022-08-02T19:20:26.162Z,43.79
2022-08-02T19:25:54.612Z,44.28
2022-08-02T19:31:01.274Z,44.44
2022-08-02T19:36:18.412Z,45.24
2022-08-02T19:41:43.690Z,45.94
2022-08-02T19:46:59.504Z,46.23
2022-08-02T19:52:25.270Z,47.23
2022-08-02T19:57:34.841Z,47.31
2022-08-02T20:02:53.509Z,48.63
2022-08-02T20:08:03.170Z,49.54
2022-08-02T20:13:10.540Z,49.27
2022-08-02T20:18:31.331Z,50.31
2022-08-02T20:23:41.772Z,50.93
2022-08-02T20:28:46.327Z,51.81
2022-08-02T20:33:58.298Z,52.11
2022-08-02T20:39:09.616Z,54.56
2022-08-02T20:44:30.859Z,54.28
2022-08-02T20:49:58.688Z,55.41
2022-08-02T20:55:16.913Z,56.47
2022-08-02T21:00:24.017Z,56.86
2022-08-02T21:05:43.877Z,57.03
2022-08-02T21:11:09.097Z,57.79
2022-08-02T21:16:21.756Z,58.19
2022-08-02T21:21:33.973Z,58.93
2022-08-02T21:26:38.883Z,59.86
2022-08-02T21:31:49.033Z,60.65
2022-08-02T21:36:56.017Z,61.56
2022-08-02T21:42:08.625Z,61.50
2022-08-02T21:47:17.330Z,61.84
2022-08-02T21:52:25.834Z,62.20
2022-08-02T21:57:43.382Z,63.61
2022-08-02T22:02:49.884Z,63.46
2022-08-02T22:08:02.045Z,64.31
2022-08-02T22:13:14.405Z,64.86
2022-08-02T22:18:29.280Z,64.98
2022-08-02T22:23:38.842Z,65.21
2022-08-02T22:28:59.610Z,65.99
2022-08-02T22:34:36.710Z,66.04
2022-08-02T22:39:37.005Z,66.41
2022-08-02T22:45:11.022Z,67.18
2022-08-02T22:50:30.557Z,67.91
2022-08-02T22:55:41.839Z,68.58
2022-08-02T23:00:52.113Z,69.68
2022-08-02T23:06:00.223Z,69.64
2022-08-02T23:11:11.974Z,69.81
2022-08-02T23:16:40.333Z,71.17
2022-08-02T23:22:01.727Z,70.89
2022-08-02T23:27:08.880Z,71.21
2022-08-02T23:32:17.339Z,71.63
2022-08-02T23:37:22.873Z,71.91
2022-08-02T23:42:30.796Z,72.26
2022-08-02T23:47:41.237Z,72.68
2022-08-02T23:52:46.287Z,72.47
2022-08-02T23:57:54.349Z,72.55
